sensor_id;sensor_type;location;lat;lon;timestamp;temperature;humidity
20242;DHT22;10279;46.388;8.116;2023-11-19T00:00:08;6.00;99.90
20242;DHT22;10279;46.388;8.116;2023-11-19T00:02:41;6.00;99.90
20242;DHT22;10279;46.388;8.116;2023-11-19T00:05:10;6.10;99.90
20242;DHT22;10279;46.388;8.116;2023-11-19T00:07:40;6.10;99.90
20242;DHT22;10279;46.388;8.116;2023-11-19T00:10:14;6.10;99.90
20242;DHT22;10279;46.388;8.116;2023-11-19T00:12:47;6.10;99.90
20242;DHT22;10279;46.388;8.116;2023-11-19T00:15:16;6.10;99.90
20242;DHT22;10279;46.388;8.116;2023-11-19T00:17:47;6.10;99.90
20242;DHT22;10279;46.388;8.116;2023-11-19T00:20:17;6.10;99.90
20242;DHT22;10279;46.388;8.116;2023-11-19T00:22:45;6.10;99.90
20242;DHT22;10279;46.388;8.116;2023-11-19T00:25:19;6.10;99.90
20242;DHT22;10279;46.388;8.116;2023-11-19T00:27:47;6.10;99.90
20242;DHT22;10279;46.388;8.116;2023-11-19T00:30:15;6.00;99.90
20242;DHT22;10279;46.388;8.116;2023-11-19T00:32:42;6.00;99.90
20242;DHT22;10279;46.388;8.116;2023-11-19T00:35:09;6.10;99.90
20242;DHT22;10279;46.388;8.116;2023-11-19T00:37:45;6.10;99.90
20242;DHT22;10279;46.388;8.116;2023-11-19T00:40:14;6.10;99.90
20242;DHT22;10279;46.388;8.116;2023-11-19T00:42:44;6.10;99.90
20242;DHT22;10279;46.388;8.116;2023-11-19T00:45:11;6.10;99.90
20242;DHT22;10279;46.388;8.116;2023-11-19T00:47:40;6.20;99.90
20242;DHT22;10279;46.388;8.116;2023-11-19T00:50:08;6.20;99.90
20242;DHT22;10279;46.388;8.116;2023-11-19T00:52:38;6.20;99.90
20242;DHT22;10279;46.388;8.116;2023-11-19T00:55:06;6.20;99.90
20242;DHT22;10279;46.388;8.116;2023-11-19T00:57:35;6.20;99.90
20242;DHT22;10279;46.388;8.116;2023-11-19T01:00:04;6.20;99.90
20242;DHT22;10279;46.388;8.116;2023-11-19T01:02:47;6.20;99.90
20242;DHT22;10279;46.388;8.116;2023-11-19T01:05:19;6.20;99.90
20242;DHT22;10279;46.388;8.116;2023-11-19T01:07:49;6.30;99.90
20242;DHT22;10279;46.388;8.116;2023-11-19T01:10:17;6.20;99.90
20242;DHT22;10279;46.388;8.116;2023-11-19T01:12:46;6.30;99.90
20242;DHT22;10279;46.388;8.116;2023-11-19T01:15:13;6.20;99.90
20242;DHT22;10279;46.388;8.116;2023-11-19T01:17:40;6.20;99.90
20242;DHT22;10279;46.388;8.116;2023-11-19T01:20:19;6.30;99.90
20242;DHT22;10279;46.388;8.116;2023-11-19T01:22:48;6.30;99.90
20242;DHT22;10279;46.388;8.116;2023-11-19T01:25:16;6.30;99.90
20242;DHT22;10279;46.388;8.116;2023-11-19T01:27:43;6.30;99.90
20242;DHT22;10279;46.388;8.116;2023-11-19T01:30:11;6.40;99.90
20242;DHT22;10279;46.388;8.116;2023-11-19T01:32:40;6.40;99.90
20242;DHT22;10279;46.388;8.116;2023-11-19T01:35:08;6.40;99.90
20242;DHT22;10279;46.388;8.116;2023-11-19T01:37:35;6.40;99.90
20242;DHT22;10279;46.388;8.116;2023-11-19T01:40:03;6.40;99.90
20242;DHT22;10279;46.388;8.116;2023-11-19T01:42:39;6.50;99.90
20242;DHT22;10279;46.388;8.116;2023-11-19T01:45:07;6.50;99.90
20242;DHT22;10279;46.388;8.116;2023-11-19T01:47:37;6.50;99.90
20242;DHT22;10279;46.388;8.116;2023-11-19T01:50:06;6.50;99.90
20242;DHT22;10279;46.388;8.116;2023-11-19T01:52:35;6.50;99.90
20242;DHT22;10279;46.388;8.116;2023-11-19T01:55:07;6.50;99.90
20242;DHT22;10279;46.388;8.116;2023-11-19T01:57:36;6.50;99.90
20242;DHT22;10279;46.388;8.116;2023-11-19T02:00:06;6.50;99.90
20242;DHT22;10279;46.388;8.116;2023-11-19T02:02:39;6.50;99.90
20242;DHT22;10279;46.388;8.116;2023-11-19T02:05:07;6.50;99.90
20242;DHT22;10279;46.388;8.116;2023-11-19T02:07:34;6.50;99.90
20242;DHT22;10279;46.388;8.116;2023-11-19T02:10:02;6.40;99.90
20242;DHT22;10279;46.388;8.116;2023-11-19T02:12:29;6.40;99.90
20242;DHT22;10279;46.388;8.116;2023-11-19T02:14:57;6.40;99.90
20242;DHT22;10279;46.388;8.116;2023-11-19T02:17:30;6.40;99.90
20242;DHT22;10279;46.388;8.116;2023-11-19T02:20:01;6.40;99.90
20242;DHT22;10279;46.388;8.116;2023-11-19T02:22:29;6.40;99.90
20242;DHT22;10279;46.388;8.116;2023-11-19T02:25:00;6.40;99.90
20242;DHT22;10279;46.388;8.116;2023-11-19T02:30:08;6.50;99.90
20242;DHT22;10279;46.388;8.116;2023-11-19T02:32:35;6.50;99.90
20242;DHT22;10279;46.388;8.116;2023-11-19T02:35:02;6.50;99.90
20242;DHT22;10279;46.388;8.116;2023-11-19T02:37:32;6.50;99.90
20242;DHT22;10279;46.388;8.116;2023-11-19T02:39:59;6.50;99.90
20242;DHT22;10279;46.388;8.116;2023-11-19T02:42:30;6.50;99.90
20242;DHT22;10279;46.388;8.116;2023-11-19T02:44:57;6.50;99.90
20242;DHT22;10279;46.388;8.116;2023-11-19T02:47:24;6.50;99.90
20242;DHT22;10279;46.388;8.116;2023-11-19T02:49:51;6.50;99.90
20242;DHT22;10279;46.388;8.116;2023-11-19T02:52:20;6.50;99.90
20242;DHT22;10279;46.388;8.116;2023-11-19T02:54:47;6.50;99.90
20242;DHT22;10279;46.388;8.116;2023-11-19T02:57:14;6.50;99.90
20242;DHT22;10279;46.388;8.116;2023-11-19T02:59:44;6.60;99.90
20242;DHT22;10279;46.388;8.116;2023-11-19T03:02:11;6.60;99.90
20242;DHT22;10279;46.388;8.116;2023-11-19T03:04:39;6.60;99.90
20242;DHT22;10279;46.388;8.116;2023-11-19T03:07:10;6.60;99.90
20242;DHT22;10279;46.388;8.116;2023-11-19T03:09:39;6.60;99.90
20242;DHT22;10279;46.388;8.116;2023-11-19T03:12:08;6.60;99.90
20242;DHT22;10279;46.388;8.116;2023-11-19T03:14:35;6.60;99.90
20242;DHT22;10279;46.388;8.116;2023-11-19T03:17:02;6.60;99.90
20242;DHT22;10279;46.388;8.116;2023-11-19T03:19:30;6.60;99.90
20242;DHT22;10279;46.388;8.116;2023-11-19T03:21:57;6.60;99.90
20242;DHT22;10279;46.388;8.116;2023-11-19T03:24:26;6.70;99.90
20242;DHT22;10279;46.388;8.116;2023-11-19T03:26:53;6.70;99.90
20242;DHT22;10279;46.388;8.116;2023-11-19T03:29:20;6.70;99.90
20242;DHT22;10279;46.388;8.116;2023-11-19T03:31:47;6.70;99.90
20242;DHT22;10279;46.388;8.116;2023-11-19T03:34:14;6.70;99.90
20242;DHT22;10279;46.388;8.116;2023-11-19T03:36:42;6.70;99.90
20242;DHT22;10279;46.388;8.116;2023-11-19T03:39:10;6.70;99.90
20242;DHT22;10279;46.388;8.116;2023-11-19T03:41:37;6.70;99.90
20242;DHT22;10279;46.388;8.116;2023-11-19T03:44:06;6.70;99.90
20242;DHT22;10279;46.388;8.116;2023-11-19T03:46:34;6.60;99.90
20242;DHT22;10279;46.388;8.116;2023-11-19T03:49:02;6.60;99.90
20242;DHT22;10279;46.388;8.116;2023-11-19T03:51:31;6.60;99.90
20242;DHT22;10279;46.388;8.116;2023-11-19T03:53:58;6.60;99.90
20242;DHT22;10279;46.388;8.116;2023-11-19T03:56:26;6.60;99.90
20242;DHT22;10279;46.388;8.116;2023-11-19T03:58:54;6.60;99.90
20242;DHT22;10279;46.388;8.116;2023-11-19T04:01:21;6.60;99.90
20242;DHT22;10279;46.388;8.116;2023-11-19T04:03:48;6.60;99.90
20242;DHT22;10279;46.388;8.116;2023-11-19T04:06:18;6.50;99.90
20242;DHT22;10279;46.388;8.116;2023-11-19T04:08:45;6.60;99.90
20242;DHT22;10279;46.388;8.116;2023-11-19T04:11:12;6.50;99.90
20242;DHT22;10279;46.388;8.116;2023-11-19T04:13:39;6.60;99.90
20242;DHT22;10279;46.388;8.116;2023-11-19T04:16:07;6.60;99.90
20242;DHT22;10279;46.388;8.116;2023-11-19T04:18:34;6.60;99.90
20242;DHT22;10279;46.388;8.116;2023-11-19T04:21:01;6.60;99.90
20242;DHT22;10279;46.388;8.116;2023-11-19T04:23:29;6.60;99.90
20242;DHT22;10279;46.388;8.116;2023-11-19T04:25:56;6.60;99.90
20242;DHT22;10279;46.388;8.116;2023-11-19T04:28:37;6.60;99.90
20242;DHT22;10279;46.388;8.116;2023-11-19T04:31:04;6.60;99.90
20242;DHT22;10279;46.388;8.116;2023-11-19T04:33:33;6.70;99.90
20242;DHT22;10279;46.388;8.116;2023-11-19T04:36:00;6.70;99.90
20242;DHT22;10279;46.388;8.116;2023-11-19T04:38:27;6.70;99.90
20242;DHT22;10279;46.388;8.116;2023-11-19T04:40:54;6.70;99.90
20242;DHT22;10279;46.388;8.116;2023-11-19T04:43:24;6.70;99.90
20242;DHT22;10279;46.388;8.116;2023-11-19T04:45:51;6.80;99.90
20242;DHT22;10279;46.388;8.116;2023-11-19T04:48:18;6.80;99.90
20242;DHT22;10279;46.388;8.116;2023-11-19T04:50:45;6.70;99.90
20242;DHT22;10279;46.388;8.116;2023-11-19T04:53:12;6.70;99.90
20242;DHT22;10279;46.388;8.116;2023-11-19T04:55:41;6.80;99.90
20242;DHT22;10279;46.388;8.116;2023-11-19T04:58:08;6.70;99.90
20242;DHT22;10279;46.388;8.116;2023-11-19T05:00:35;6.80;99.90
20242;DHT22;10279;46.388;8.116;2023-11-19T05:03:02;6.80;99.90
20242;DHT22;10279;46.388;8.116;2023-11-19T05:05:29;6.80;99.90
20242;DHT22;10279;46.388;8.116;2023-11-19T05:07:57;6.80;99.90
20242;DHT22;10279;46.388;8.116;2023-11-19T05:10:24;6.80;99.90
20242;DHT22;10279;46.388;8.116;2023-11-19T05:12:52;6.80;99.90
20242;DHT22;10279;46.388;8.116;2023-11-19T05:15:19;6.80;99.90
20242;DHT22;10279;46.388;8.116;2023-11-19T05:17:46;6.80;99.90
20242;DHT22;10279;46.388;8.116;2023-11-19T05:20:13;6.80;99.90
20242;DHT22;10279;46.388;8.116;2023-11-19T05:22:43;6.80;99.90
20242;DHT22;10279;46.388;8.116;2023-11-19T05:25:10;6.70;99.90
20242;DHT22;10279;46.388;8.116;2023-11-19T05:27:38;6.70;99.90
20242;DHT22;10279;46.388;8.116;2023-11-19T05:30:06;6.70;99.90
20242;DHT22;10279;46.388;8.116;2023-11-19T05:32:38;6.80;99.90
20242;DHT22;10279;46.388;8.116;2023-11-19T05:35:06;6.70;99.90
20242;DHT22;10279;46.388;8.116;2023-11-19T05:37:33;6.80;99.90
20242;DHT22;10279;46.388;8.116;2023-11-19T05:40:02;6.70;99.90
20242;DHT22;10279;46.388;8.116;2023-11-19T05:42:39;6.70;99.90
20242;DHT22;10279;46.388;8.116;2023-11-19T05:45:07;6.70;99.90
20242;DHT22;10279;46.388;8.116;2023-11-19T05:47:34;6.70;99.90
20242;DHT22;10279;46.388;8.116;2023-11-19T05:50:02;6.70;99.90
20242;DHT22;10279;46.388;8.116;2023-11-19T05:52:29;6.60;99.90
20242;DHT22;10279;46.388;8.116;2023-11-19T05:55:01;6.70;99.90
20242;DHT22;10279;46.388;8.116;2023-11-19T05:57:31;6.60;99.90
20242;DHT22;10279;46.388;8.116;2023-11-19T06:00:13;6.60;99.90
20242;DHT22;10279;46.388;8.116;2023-11-19T06:02:42;6.60;99.90
20242;DHT22;10279;46.388;8.116;2023-11-19T06:05:10;6.60;99.90
20242;DHT22;10279;46.388;8.116;2023-11-19T06:07:37;6.50;99.90
20242;DHT22;10279;46.388;8.116;2023-11-19T06:10:06;6.60;99.90
20242;DHT22;10279;46.388;8.116;2023-11-19T06:12:34;6.60;99.90
20242;DHT22;10279;46.388;8.116;2023-11-19T06:15:08;6.60;99.90
20242;DHT22;10279;46.388;8.116;2023-11-19T06:17:35;6.60;99.90
20242;DHT22;10279;46.388;8.116;2023-11-19T06:20:04;6.60;99.90
20242;DHT22;10279;46.388;8.116;2023-11-19T06:22:32;6.50;99.90
20242;DHT22;10279;46.388;8.116;2023-11-19T06:24:59;6.50;99.90
20242;DHT22;10279;46.388;8.116;2023-11-19T06:27:27;6.50;99.90
20242;DHT22;10279;46.388;8.116;2023-11-19T06:29:54;6.50;99.90
20242;DHT22;10279;46.388;8.116;2023-11-19T06:32:21;6.60;99.90
20242;DHT22;10279;46.388;8.116;2023-11-19T06:34:48;6.60;99.90
20242;DHT22;10279;46.388;8.116;2023-11-19T06:37:15;6.60;99.90
20242;DHT22;10279;46.388;8.116;2023-11-19T06:39:42;6.60;99.90
20242;DHT22;10279;46.388;8.116;2023-11-19T06:42:10;6.70;99.90
20242;DHT22;10279;46.388;8.116;2023-11-19T06:44:37;6.70;99.90
20242;DHT22;10279;46.388;8.116;2023-11-19T06:47:04;6.70;99.90
20242;DHT22;10279;46.388;8.116;2023-11-19T06:49:31;6.70;99.90
20242;DHT22;10279;46.388;8.116;2023-11-19T06:51:58;6.70;99.90
20242;DHT22;10279;46.388;8.116;2023-11-19T06:54:25;6.80;99.90
20242;DHT22;10279;46.388;8.116;2023-11-19T06:56:53;6.70;99.90
20242;DHT22;10279;46.388;8.116;2023-11-19T06:59:20;6.80;99.90
20242;DHT22;10279;46.388;8.116;2023-11-19T07:01:47;6.80;99.90
20242;DHT22;10279;46.388;8.116;2023-11-19T07:04:14;6.80;99.90
20242;DHT22;10279;46.388;8.116;2023-11-19T07:06:41;6.90;99.90
20242;DHT22;10279;46.388;8.116;2023-11-19T07:09:08;6.90;99.90
20242;DHT22;10279;46.388;8.116;2023-11-19T07:11:41;7.00;99.90
20242;DHT22;10279;46.388;8.116;2023-11-19T07:14:08;7.00;99.90
20242;DHT22;10279;46.388;8.116;2023-11-19T07:16:36;7.10;99.90
20242;DHT22;10279;46.388;8.116;2023-11-19T07:19:06;7.10;99.90
20242;DHT22;10279;46.388;8.116;2023-11-19T07:21:33;7.10;99.90
20242;DHT22;10279;46.388;8.116;2023-11-19T07:24:02;7.10;99.90
20242;DHT22;10279;46.388;8.116;2023-11-19T07:26:29;7.10;99.90
20242;DHT22;10279;46.388;8.116;2023-11-19T07:28:56;7.20;99.90
20242;DHT22;10279;46.388;8.116;2023-11-19T07:31:24;7.20;99.90
20242;DHT22;10279;46.388;8.116;2023-11-19T07:33:51;7.20;99.90
20242;DHT22;10279;46.388;8.116;2023-11-19T07:36:18;7.30;99.90
20242;DHT22;10279;46.388;8.116;2023-11-19T07:38:46;7.40;99.90
20242;DHT22;10279;46.388;8.116;2023-11-19T07:41:14;7.50;99.90
20242;DHT22;10279;46.388;8.116;2023-11-19T07:43:45;7.60;99.90
20242;DHT22;10279;46.388;8.116;2023-11-19T07:46:14;7.60;99.90
20242;DHT22;10279;46.388;8.116;2023-11-19T07:48:41;7.70;99.90
20242;DHT22;10279;46.388;8.116;2023-11-19T07:51:11;7.80;99.90
20242;DHT22;10279;46.388;8.116;2023-11-19T07:53:39;7.80;99.90
20242;DHT22;10279;46.388;8.116;2023-11-19T07:56:08;7.90;99.90
20242;DHT22;10279;46.388;8.116;2023-11-19T07:58:35;8.00;99.90
20242;DHT22;10279;46.388;8.116;2023-11-19T08:01:03;8.00;99.90
20242;DHT22;10279;46.388;8.116;2023-11-19T08:03:30;8.00;99.90
20242;DHT22;10279;46.388;8.116;2023-11-19T08:05:58;8.00;99.90
20242;DHT22;10279;46.388;8.116;2023-11-19T08:08:25;8.00;99.90
20242;DHT22;10279;46.388;8.116;2023-11-19T08:10:52;8.00;99.90
20242;DHT22;10279;46.388;8.116;2023-11-19T08:13:20;8.00;99.90
20242;DHT22;10279;46.388;8.116;2023-11-19T08:15:48;8.00;99.90
20242;DHT22;10279;46.388;8.116;2023-11-19T08:18:15;8.10;99.90
20242;DHT22;10279;46.388;8.116;2023-11-19T08:20:42;8.00;99.90
20242;DHT22;10279;46.388;8.116;2023-11-19T08:23:11;8.00;99.90
20242;DHT22;10279;46.388;8.116;2023-11-19T08:25:39;8.00;99.90
20242;DHT22;10279;46.388;8.116;2023-11-19T08:28:06;8.00;99.90
20242;DHT22;10279;46.388;8.116;2023-11-19T08:30:33;8.00;99.90
20242;DHT22;10279;46.388;8.116;2023-11-19T08:33:00;8.10;99.90
20242;DHT22;10279;46.388;8.116;2023-11-19T08:35:30;8.10;99.90
20242;DHT22;10279;46.388;8.116;2023-11-19T08:37:57;8.10;99.90
20242;DHT22;10279;46.388;8.116;2023-11-19T08:40:25;8.10;99.90
20242;DHT22;10279;46.388;8.116;2023-11-19T08:42:52;8.10;99.90
20242;DHT22;10279;46.388;8.116;2023-11-19T08:45:20;8.20;99.90
20242;DHT22;10279;46.388;8.116;2023-11-19T08:47:47;8.20;99.90
20242;DHT22;10279;46.388;8.116;2023-11-19T08:50:14;8.20;99.90
20242;DHT22;10279;46.388;8.116;2023-11-19T08:52:41;8.30;99.90
20242;DHT22;10279;46.388;8.116;2023-11-19T08:55:08;8.30;99.90
20242;DHT22;10279;46.388;8.116;2023-11-19T08:57:36;8.30;99.90
20242;DHT22;10279;46.388;8.116;2023-11-19T09:00:04;8.30;99.90
20242;DHT22;10279;46.388;8.116;2023-11-19T09:02:35;8.40;99.90
20242;DHT22;10279;46.388;8.116;2023-11-19T09:05:05;8.50;99.90
20242;DHT22;10279;46.388;8.116;2023-11-19T09:07:34;8.50;99.90
20242;DHT22;10279;46.388;8.116;2023-11-19T09:10:02;8.50;99.90
20242;DHT22;10279;46.388;8.116;2023-11-19T09:12:31;8.60;99.90
20242;DHT22;10279;46.388;8.116;2023-11-19T09:14:59;8.60;99.90
20242;DHT22;10279;46.388;8.116;2023-11-19T09:17:26;8.60;99.90
20242;DHT22;10279;46.388;8.116;2023-11-19T09:19:53;8.60;99.90
20242;DHT22;10279;46.388;8.116;2023-11-19T09:22:20;8.60;99.90
20242;DHT22;10279;46.388;8.116;2023-11-19T09:24:47;8.60;99.90
20242;DHT22;10279;46.388;8.116;2023-11-19T09:27:15;8.50;99.90
20242;DHT22;10279;46.388;8.116;2023-11-19T09:29:42;8.50;99.90
20242;DHT22;10279;46.388;8.116;2023-11-19T09:32:10;8.50;99.90
20242;DHT22;10279;46.388;8.116;2023-11-19T09:34:37;8.50;99.90
20242;DHT22;10279;46.388;8.116;2023-11-19T09:37:04;8.50;99.90
20242;DHT22;10279;46.388;8.116;2023-11-19T09:39:47;8.50;99.90
20242;DHT22;10279;46.388;8.116;2023-11-19T09:42:14;8.60;99.90
20242;DHT22;10279;46.388;8.116;2023-11-19T09:44:43;8.50;99.90
20242;DHT22;10279;46.388;8.116;2023-11-19T09:47:11;8.50;99.90
20242;DHT22;10279;46.388;8.116;2023-11-19T09:49:40;8.50;99.90
20242;DHT22;10279;46.388;8.116;2023-11-19T09:52:08;8.50;99.90
20242;DHT22;10279;46.388;8.116;2023-11-19T09:54:35;8.50;99.90
20242;DHT22;10279;46.388;8.116;2023-11-19T09:57:04;8.60;99.90
20242;DHT22;10279;46.388;8.116;2023-11-19T09:59:33;8.60;99.90
20242;DHT22;10279;46.388;8.116;2023-11-19T10:02:00;8.60;99.90
20242;DHT22;10279;46.388;8.116;2023-11-19T10:04:30;8.60;99.90
20242;DHT22;10279;46.388;8.116;2023-11-19T10:06:58;8.60;99.90
20242;DHT22;10279;46.388;8.116;2023-11-19T10:09:25;8.60;99.90
20242;DHT22;10279;46.388;8.116;2023-11-19T10:11:52;8.60;99.90
20242;DHT22;10279;46.388;8.116;2023-11-19T10:14:23;8.70;99.90
20242;DHT22;10279;46.388;8.116;2023-11-19T10:16:51;8.70;99.90
20242;DHT22;10279;46.388;8.116;2023-11-19T10:19:21;8.70;99.90
20242;DHT22;10279;46.388;8.116;2023-11-19T10:21:48;8.70;99.90
20242;DHT22;10279;46.388;8.116;2023-11-19T10:24:15;8.70;99.90
20242;DHT22;10279;46.388;8.116;2023-11-19T10:26:45;8.60;99.90
20242;DHT22;10279;46.388;8.116;2023-11-19T10:29:15;8.60;99.90
20242;DHT22;10279;46.388;8.116;2023-11-19T10:31:56;8.60;99.90
20242;DHT22;10279;46.388;8.116;2023-11-19T10:34:44;8.60;99.90
20242;DHT22;10279;46.388;8.116;2023-11-19T10:37:31;8.70;99.90
20242;DHT22;10279;46.388;8.116;2023-11-19T10:40:00;8.80;99.90
20242;DHT22;10279;46.388;8.116;2023-11-19T10:42:27;8.90;99.90
20242;DHT22;10279;46.388;8.116;2023-11-19T10:44:54;9.00;99.90
20242;DHT22;10279;46.388;8.116;2023-11-19T10:47:22;9.00;99.90
20242;DHT22;10279;46.388;8.116;2023-11-19T10:49:53;9.10;99.90
20242;DHT22;10279;46.388;8.116;2023-11-19T10:52:20;9.10;99.90
20242;DHT22;10279;46.388;8.116;2023-11-19T10:54:51;9.00;99.90
20242;DHT22;10279;46.388;8.116;2023-11-19T10:57:21;9.00;99.90
20242;DHT22;10279;46.388;8.116;2023-11-19T11:00:00;9.00;99.90
20242;DHT22;10279;46.388;8.116;2023-11-19T11:02:33;9.00;99.90
20242;DHT22;10279;46.388;8.116;2023-11-19T11:05:03;9.10;99.90
20242;DHT22;10279;46.388;8.116;2023-11-19T11:07:31;9.00;99.90
20242;DHT22;10279;46.388;8.116;2023-11-19T11:10:07;9.00;99.90
20242;DHT22;10279;46.388;8.116;2023-11-19T11:12:37;9.00;99.90
20242;DHT22;10279;46.388;8.116;2023-11-19T11:15:06;8.90;99.90
20242;DHT22;10279;46.388;8.116;2023-11-19T11:17:36;8.90;99.90
20242;DHT22;10279;46.388;8.116;2023-11-19T11:20:08;8.90;99.90
20242;DHT22;10279;46.388;8.116;2023-11-19T11:22:50;8.90;99.90
20242;DHT22;10279;46.388;8.116;2023-11-19T11:25:52;8.90;99.90
20242;DHT22;10279;46.388;8.116;2023-11-19T11:36:11;9.00;99.90
20242;DHT22;10279;46.388;8.116;2023-11-19T11:38:41;9.00;99.90
20242;DHT22;10279;46.388;8.116;2023-11-19T11:41:22;9.00;99.90
20242;DHT22;10279;46.388;8.116;2023-11-19T11:43:55;9.00;99.90
20242;DHT22;10279;46.388;8.116;2023-11-19T11:49:02;9.00;99.90
20242;DHT22;10279;46.388;8.116;2023-11-19T11:59:46;9.10;99.90
20242;DHT22;10279;46.388;8.116;2023-11-19T12:02:19;9.10;99.90
20242;DHT22;10279;46.388;8.116;2023-11-19T12:04:52;9.10;99.90
20242;DHT22;10279;46.388;8.116;2023-11-19T12:07:24;9.10;99.90
20242;DHT22;10279;46.388;8.116;2023-11-19T12:09:55;9.00;99.90
20242;DHT22;10279;46.388;8.116;2023-11-19T12:12:34;9.00;99.90
20242;DHT22;10279;46.388;8.116;2023-11-19T12:20:06;8.90;99.90
20242;DHT22;10279;46.388;8.116;2023-11-19T12:22:41;8.90;99.90
20242;DHT22;10279;46.388;8.116;2023-11-19T12:25:10;8.80;99.90
20242;DHT22;10279;46.388;8.116;2023-11-19T12:27:48;8.90;99.90
20242;DHT22;10279;46.388;8.116;2023-11-19T12:32:51;8.90;99.90
20242;DHT22;10279;46.388;8.116;2023-11-19T12:35:21;9.00;99.90
20242;DHT22;10279;46.388;8.116;2023-11-19T12:37:50;9.00;99.90
20242;DHT22;10279;46.388;8.116;2023-11-19T12:42:46;8.90;99.90
20242;DHT22;10279;46.388;8.116;2023-11-19T12:45:14;8.80;99.90
20242;DHT22;10279;46.388;8.116;2023-11-19T12:47:43;8.80;99.90
20242;DHT22;10279;46.388;8.116;2023-11-19T12:50:11;8.80;99.90
20242;DHT22;10279;46.388;8.116;2023-11-19T12:52:38;8.70;99.90
20242;DHT22;10279;46.388;8.116;2023-11-19T12:55:25;8.70;99.90
20242;DHT22;10279;46.388;8.116;2023-11-19T12:57:56;8.70;99.90
20242;DHT22;10279;46.388;8.116;2023-11-19T13:00:27;8.70;99.90
20242;DHT22;10279;46.388;8.116;2023-11-19T13:02:55;8.70;99.90
20242;DHT22;10279;46.388;8.116;2023-11-19T13:05:27;8.60;99.90
20242;DHT22;10279;46.388;8.116;2023-11-19T13:08:01;8.40;99.90
20242;DHT22;10279;46.388;8.116;2023-11-19T13:10:29;8.30;99.90
20242;DHT22;10279;46.388;8.116;2023-11-19T13:13:06;8.20;99.90
20242;DHT22;10279;46.388;8.116;2023-11-19T13:15:36;8.00;99.90
20242;DHT22;10279;46.388;8.116;2023-11-19T13:18:03;7.90;99.90
20242;DHT22;10279;46.388;8.116;2023-11-19T13:20:30;7.90;99.90
20242;DHT22;10279;46.388;8.116;2023-11-19T13:23:00;7.90;99.90
20242;DHT22;10279;46.388;8.116;2023-11-19T13:25:28;7.70;99.90
20242;DHT22;10279;46.388;8.116;2023-11-19T13:27:56;7.70;99.90
20242;DHT22;10279;46.388;8.116;2023-11-19T13:30:24;7.70;99.90
20242;DHT22;10279;46.388;8.116;2023-11-19T13:32:53;7.70;99.90
20242;DHT22;10279;46.388;8.116;2023-11-19T13:35:22;7.70;99.90
20242;DHT22;10279;46.388;8.116;2023-11-19T13:37:49;7.60;99.90
20242;DHT22;10279;46.388;8.116;2023-11-19T13:40:18;7.50;99.90
20242;DHT22;10279;46.388;8.116;2023-11-19T13:42:46;7.50;99.90
20242;DHT22;10279;46.388;8.116;2023-11-19T13:45:15;7.60;99.90
20242;DHT22;10279;46.388;8.116;2023-11-19T13:47:45;7.70;99.90
20242;DHT22;10279;46.388;8.116;2023-11-19T13:50:15;7.80;99.90
20242;DHT22;10279;46.388;8.116;2023-11-19T13:52:44;7.90;99.90
20242;DHT22;10279;46.388;8.116;2023-11-19T13:55:14;8.00;99.90
20242;DHT22;10279;46.388;8.116;2023-11-19T13:57:42;8.10;99.90
20242;DHT22;10279;46.388;8.116;2023-11-19T14:00:11;8.10;99.90
20242;DHT22;10279;46.388;8.116;2023-11-19T14:02:41;8.20;99.90
20242;DHT22;10279;46.388;8.116;2023-11-19T14:05:09;8.20;99.90
20242;DHT22;10279;46.388;8.116;2023-11-19T14:07:41;8.20;99.90
20242;DHT22;10279;46.388;8.116;2023-11-19T14:10:09;8.20;99.90
20242;DHT22;10279;46.388;8.116;2023-11-19T14:12:38;8.20;99.90
20242;DHT22;10279;46.388;8.116;2023-11-19T14:15:07;8.20;99.90
20242;DHT22;10279;46.388;8.116;2023-11-19T14:17:36;8.20;99.90
20242;DHT22;10279;46.388;8.116;2023-11-19T14:20:03;8.20;99.90
20242;DHT22;10279;46.388;8.116;2023-11-19T14:22:43;8.20;99.90
20242;DHT22;10279;46.388;8.116;2023-11-19T14:25:11;8.30;99.90
20242;DHT22;10279;46.388;8.116;2023-11-19T14:27:40;8.30;99.90
20242;DHT22;10279;46.388;8.116;2023-11-19T14:30:09;8.40;99.90
20242;DHT22;10279;46.388;8.116;2023-11-19T14:32:39;8.40;99.90
20242;DHT22;10279;46.388;8.116;2023-11-19T14:35:07;8.40;99.90
20242;DHT22;10279;46.388;8.116;2023-11-19T14:37:34;8.50;99.90
20242;DHT22;10279;46.388;8.116;2023-11-19T14:40:02;8.50;99.90
20242;DHT22;10279;46.388;8.116;2023-11-19T14:42:33;8.40;99.90
20242;DHT22;10279;46.388;8.116;2023-11-19T14:45:01;8.40;99.90
20242;DHT22;10279;46.388;8.116;2023-11-19T14:47:28;8.40;99.90
20242;DHT22;10279;46.388;8.116;2023-11-19T14:49:56;8.40;99.90
20242;DHT22;10279;46.388;8.116;2023-11-19T14:52:23;8.40;99.90
20242;DHT22;10279;46.388;8.116;2023-11-19T14:54:50;8.40;99.90
20242;DHT22;10279;46.388;8.116;2023-11-19T14:57:21;8.40;99.90
20242;DHT22;10279;46.388;8.116;2023-11-19T14:59:48;8.40;99.90
20242;DHT22;10279;46.388;8.116;2023-11-19T15:02:15;8.50;99.90
20242;DHT22;10279;46.388;8.116;2023-11-19T15:04:42;8.50;99.90
20242;DHT22;10279;46.388;8.116;2023-11-19T15:07:11;8.50;99.90
20242;DHT22;10279;46.388;8.116;2023-11-19T15:09:38;8.50;99.90
20242;DHT22;10279;46.388;8.116;2023-11-19T15:12:06;8.60;99.90
20242;DHT22;10279;46.388;8.116;2023-11-19T15:14:33;8.60;99.90
20242;DHT22;10279;46.388;8.116;2023-11-19T15:17:00;8.60;99.90
20242;DHT22;10279;46.388;8.116;2023-11-19T15:19:28;8.60;99.90
20242;DHT22;10279;46.388;8.116;2023-11-19T15:21:55;8.60;99.90
20242;DHT22;10279;46.388;8.116;2023-11-19T15:24:22;8.60;99.90
20242;DHT22;10279;46.388;8.116;2023-11-19T15:26:49;8.60;99.90
20242;DHT22;10279;46.388;8.116;2023-11-19T15:29:16;8.60;99.90
20242;DHT22;10279;46.388;8.116;2023-11-19T15:31:43;8.60;99.90
20242;DHT22;10279;46.388;8.116;2023-11-19T15:34:10;8.60;99.90
20242;DHT22;10279;46.388;8.116;2023-11-19T15:36:38;8.60;99.90
20242;DHT22;10279;46.388;8.116;2023-11-19T15:39:05;8.60;99.90
20242;DHT22;10279;46.388;8.116;2023-11-19T15:41:32;8.60;99.90
20242;DHT22;10279;46.388;8.116;2023-11-19T15:44:00;8.50;99.90
20242;DHT22;10279;46.388;8.116;2023-11-19T15:46:27;8.50;99.90
20242;DHT22;10279;46.388;8.116;2023-11-19T15:48:54;8.40;99.90
20242;DHT22;10279;46.388;8.116;2023-11-19T15:51:21;8.40;99.90
20242;DHT22;10279;46.388;8.116;2023-11-19T15:53:48;8.50;99.90
20242;DHT22;10279;46.388;8.116;2023-11-19T15:56:15;8.50;99.90
20242;DHT22;10279;46.388;8.116;2023-11-19T15:58:42;8.50;99.90
20242;DHT22;10279;46.388;8.116;2023-11-19T16:01:09;8.50;99.90
20242;DHT22;10279;46.388;8.116;2023-11-19T16:03:36;8.50;99.90
20242;DHT22;10279;46.388;8.116;2023-11-19T16:06:10;8.60;99.90
20242;DHT22;10279;46.388;8.116;2023-11-19T16:08:40;8.60;99.90
20242;DHT22;10279;46.388;8.116;2023-11-19T16:11:07;8.60;99.90
20242;DHT22;10279;46.388;8.116;2023-11-19T16:13:36;8.60;99.90
20242;DHT22;10279;46.388;8.116;2023-11-19T16:16:04;8.60;99.90
20242;DHT22;10279;46.388;8.116;2023-11-19T16:18:32;8.60;99.90
20242;DHT22;10279;46.388;8.116;2023-11-19T16:21:00;8.60;99.90
20242;DHT22;10279;46.388;8.116;2023-11-19T16:23:28;8.60;99.90
20242;DHT22;10279;46.388;8.116;2023-11-19T16:25:55;8.60;99.90